Aviation Digital Data Service (ADDS)

Output produced by METARs form (2056 UTC 29 May 2017)
found at http://www.aviationweather.gov/adds/metars/
 
KFAR 291902Z 2919/3018 32015G24KT P6SM VCSH OVC040 
     FM292300 32016KT P6SM VCSH BKN050 
     FM300200 33010KT P6SM BKN040 
     FM300800 31009KT P6SM BKN025 
     FM301600 32014G23KT P6SM BKN025
       
KFAT 291720Z 2918/3018 VRB04KT P6SM SCT250 
     FM292200 31010KT P6SM SCT250
       
KFAY 291720Z 2918/3018 30007KT P6SM SCT040 SCT250 
     FM300000 VRB06KT P6SM VCTS BKN040CB 
     TEMPO 3000/3004 VRB25G40KT 2SM +SHRA BKN040 
     FM300900 VRB03KT P6SM BKN250
       
TAF KFBG 291700Z 2917/3023 27009KT 9999 FEW150 QNH2992INS 
     BECMG 2923/2924 VRB06KT 9999 BKN040 QNH2996INS 
     BECMG 3002/3003 01009KT 8000 -SHRA SCT040 QNH2998INS 
     TEMPO 3002/3006 25015G25KT 8000 -TSRA OVC030CB 
     BECMG 3008/3009 VRB06KT 4800 -SHRA BKN008 QNH3000INS 
     BECMG 3014/3015 VRB06KT 9999 NSW BKN020 QNH3010INS TX31/2920Z TN21/3011Z
       
TAF KFCS 291301Z 2913/3019 35009KT 9999 SKC QNH3022INS 
     BECMG 2919/2920 12012G18KT 9999 -SHRA VCTS BKN080CB QNH3018INS 
     TEMPO 2921/3002 VRB20G30KT 8000 -TSRA BKN040CB 
     BECMG 3002/3003 28009KT 9999 -SHRA SCT080 SCT200 QNH3019INS 
     BECMG 3007/3008 34009KT 9999 NSW FEW200 QNH3021INS TX21/2921Z TN06/3012Z
       
KFDY 291921Z 2919/3018 24015G25KT P6SM FEW200 
     FM300000 24009KT P6SM VCSH SCT060 BKN150 
     FM300600 23006KT P6SM SCT100 
     FM301200 25011KT P6SM FEW200
       
TAF KFFO 291900Z 2919/3101 23015G25KT 9999 SCT060 QNH2990INS 
     BECMG 2923/2924 23009KT 9999 FEW060 SCT080 QNH2990INS 
     BECMG 3014/3015 26012G18KT 9999 SCT060 QNH3004INS 
     BECMG 3022/3023 25009KT 9999 FEW060 QNH3002INS TX27/2921Z TN16/3009Z
       
KFKL 291720Z 2918/3018 27010G18KT P6SM SCT060 
     FM300000 20005KT P6SM SCT200 
     FM300600 19006KT P6SM VCSH BKN100 AMD LTD TO CLD VIS AND WIND
       
KFLG 291725Z 2918/3018 17010KT P6SM BKN100 
     FM300100 VRB05KT P6SM FEW100
       
KFLL 291735Z 2918/3018 11010KT P6SM FEW025 
     FM300000 14007KT P6SM FEW030 
     FM300400 VRB05KT P6SM FEW250 
     FM301600 14007KT P6SM SCT250
       
KFLO 291720Z 2918/3018 26006KT P6SM FEW200 
     FM292300 22006KT P6SM SCT070 
     FM300100 22005KT P6SM VCTS BKN040CB 
     FM300300 23004KT P6SM BKN035 
     PROB30 3003/3009 4SM -TSRA OVC015CB 
     FM301400 27008KT P6SM BKN090 
     PROB30 3015/3018 4SM -TSRA OVC015CB
       
KFMH 291733Z 2918/3018 07011KT P6SM -RA OVC008 
     FM292300 04008KT 2SM BR OVC008 
     FM300700 04004KT 1SM BR BKN008 
     FM301300 10004KT P6SM BKN015 
     FM301600 14007KT P6SM BKN020
       
KFMN 291726Z 2918/3018 13007KT P6SM SKC 
     FM291900 29010KT P6SM FEW100 
     FM300200 VRB05KT P6SM FEW100 
     FM300700 08009KT P6SM FEW120 
     FM301700 12006KT P6SM SKC
       
KFMY 291720Z 2918/3018 27008KT P6SM SCT050 
     FM300200 VRB03KT P6SM FEW030 
     FM301500 19006KT P6SM FEW035 SCT250
       
KFNT 291720Z 2918/3018 23015G24KT P6SM BKN060 
     FM300000 24008KT P6SM SCT070 
     FM301500 24014G23KT P6SM BKN060
       
KFOD 291720Z 2918/3018 30015G22KT P6SM BKN060 OVC120 
     FM292000 30016G24KT P6SM BKN060 
     FM300000 31011KT P6SM SCT060 BKN090 
     FM300300 28005KT P6SM SCT120 
     FM301400 28009KT P6SM SCT120 
     FM301600 29011G23KT P6SM SCT050
       
KFOE 291739Z 2918/3018 31010KT P6SM SKC 
     FM300100 31005KT P6SM SCT100
       
KFPR 291727Z 2918/3018 09011KT P6SM SCT045 
     FM300000 13009KT P6SM FEW040 
     FM300400 21003KT P6SM SCT250 
     FM301400 19004KT P6SM SCT025
       
KFSD 291720Z 2918/3018 31016G27KT P6SM OVC050 
     FM300000 32013G18KT P6SM SCT140 
     FM300200 30007KT P6SM SCT100 
     FM301500 31011G17KT P6SM FEW150
       
KFSM 291720Z 2918/3018 25004KT P6SM SCT250 
     FM300300 00000KT P6SM SCT250 
     FM300600 06003KT P6SM SCT250
       
KFST 291720Z 2918/3018 10013G18KT P6SM SCT050 
     FM300600 14009KT P6SM BKN040
       
TAF KFTK 291700Z 2917/3023 25012KT 9999 FEW055 QNH2994INS 
     BECMG 2923/2924 VRB06KT 9999 FEW085 QNH2998INS 
     BECMG 3018/3019 28010G18KT 9999 SKC QNH3002INS TX27/2920Z TN17/3008Z
       
KFTW 291738Z 2918/3018 09007KT P6SM FEW050 BKN200 
     FM300400 12006KT P6SM SCT300
       
KFTY 291937Z 2920/3018 26006KT P6SM BKN050 BKN100 
     TEMPO 2920/2922 VRB10G25KT 4SM -TSRA BR BKN025CB 
     FM300000 25005KT P6SM VCTS SCT050CB BKN120 
     FM300300 26002KT P6SM BKN050 
     FM301200 25004KT P6SM BKN015 
     FM301600 26007KT P6SM BKN025 
     PROB30 3017/3018 4SM -TSRA BKN020CB
       
KFVE 291731Z 2918/3018 11008G15KT P6SM BKN018 
     FM300300 14006KT 6SM -SHRA BKN015 OVC030 
     FM300700 15007KT 3SM -SHRA BR OVC009 
     FM301230 15008KT P6SM OVC015 
     FM301600 16009KT P6SM VCSH BKN025
       
KFWA 291722Z 2918/3018 25013G19KT P6SM FEW050 SCT250 
     FM300000 25009KT P6SM SCT120
       
KFXE 291735Z 2918/3018 07005KT P6SM SCT030 
     FM291900 12010KT P6SM VCSH SCT035 
     FM300000 VRB03KT P6SM FEW250 
     FM301600 14007KT P6SM SCT250
       
KFYV 291720Z 2918/3018 29007KT P6SM SCT250 
     FM300300 00000KT P6SM SCT250 
     FM301500 23006KT P6SM BKN250